Airfield :







YOU CAN JOIN US ON...

 
LOGIN :

Register | Disclaimer

   EN    FR    IT 

 









Legend :    VFR   Marginal VFR   IFR   Intensive IFR   Very Intensive IFR
Visi :
Ceiling :
>= 8 km
>= 3000ft
5 to 8 km
1000 to 3000 ft
1500m to 5 km
500 to 1000 ft
800 to 1500m
200 to 500 ft
< 800m
< 200 ft
Symbols :   Thunderstorms  Fog  Heavy snow  Heavy precipitations  Wind > 20 kt






- Airport Elevation : 270 ft
- IATA code : YMX


CYMX - Montreal International Mirabel

CURRENT METAR :
  • 131600Z 00000KT 25SM FEW100 FEW150 BKN250 26/05 A2984 RMK AC1AC1CI6 AC TR AC TR SLP106 DENSITY ALT 1700FT

EXPIRED METARs :
  • 131500Z 21002KT 25SM BKN250 24/08 A2984 RMK CI6 SLP108 DENSITY ALT 1500FT
  • 131400Z VRB04KT 25SM FEW150 BKN250 23/08 A2985 RMK AC1CI7 AC TR SLP110 DENSITY ALT 1300FT

TAF TAF CYMX
Valid from the 13 at 12:00 until the 14 at 12:00 UTC


131138Z 1312/1412 VRB03KT P6SM BKN240
FM131600 19007KT P6SM BKN200
FM140000 20008KT P6SM OVC080
FM140400 20007KT P6SM -SHRA OVC060
FM140900 VRB03KT P6SM -SHRA BKN020 OVC040 RMK NXT FCST BY 131800Z
CZUL FIR / North America



MET'MAP, your aeronautical weather chart ! - Copyright ORBIFLY December 2007 - Disclaimer

ORBIFLY MET'MAP TEAM :

Programming & Development : Alexandra Zaïnal
Concept & original design : Baudouin d'Aumeries
Assistance for programming : Marc-Olivier Méhu
Technical & hardware support : Manuel Goepfert

Contact : metmap@orbifly.com




SOURCES & CREDITS :

   NOAA